createdAt,value
2019-02-18T00:00:12.954Z,14.60
2019-02-18T00:01:13.044Z,17.40
2019-02-18T00:02:13.131Z,18.40
2019-02-18T00:03:13.219Z,17.70
2019-02-18T00:04:13.304Z,17.30
2019-02-18T00:05:13.392Z,14.30
2019-02-18T00:06:13.477Z,14.10
2019-02-18T00:07:14.807Z,13.90
2019-02-18T00:08:13.651Z,14.30
2019-02-18T00:09:13.736Z,13.80
2019-02-18T00:10:13.822Z,13.50
2019-02-18T00:11:13.907Z,12.70
2019-02-18T00:12:14.001Z,12.60
2019-02-18T00:13:14.084Z,13.00
2019-02-18T00:14:14.174Z,13.20
2019-02-18T00:15:14.262Z,12.70
2019-02-18T00:16:14.342Z,12.60
2019-02-18T00:17:14.429Z,12.20
2019-02-18T00:18:14.517Z,13.00
2019-02-18T00:19:14.606Z,12.20
2019-02-18T00:20:14.698Z,13.30
2019-02-18T00:21:14.777Z,12.30
2019-02-18T00:22:14.863Z,13.00
2019-02-18T00:23:14.952Z,12.70
2019-02-18T00:24:15.036Z,12.40
2019-02-18T00:25:15.120Z,12.50
2019-02-18T00:26:15.207Z,13.30
2019-02-18T00:27:15.293Z,13.00
2019-02-18T00:28:15.382Z,12.30
2019-02-18T00:29:15.464Z,12.70
2019-02-18T00:30:15.570Z,12.30
2019-02-18T00:31:15.657Z,12.80
2019-02-18T00:32:15.743Z,12.10
2019-02-18T00:33:15.830Z,12.90
2019-02-18T00:34:15.914Z,12.60
2019-02-18T00:35:16.000Z,12.90
2019-02-18T00:36:16.092Z,12.60
2019-02-18T00:37:24.144Z,12.10
2019-02-18T00:38:16.265Z,12.70
2019-02-18T00:39:16.350Z,12.70
2019-02-18T00:40:16.438Z,13.10
2019-02-18T00:41:16.527Z,12.90
2019-02-18T00:42:16.611Z,12.70
2019-02-18T00:43:16.694Z,12.90
2019-02-18T00:44:16.780Z,12.20
2019-02-18T00:45:16.866Z,12.60
2019-02-18T00:46:16.955Z,12.80
2019-02-18T00:47:17.038Z,13.20
2019-02-18T00:48:17.125Z,12.90
2019-02-18T00:49:17.210Z,12.40
2019-02-18T00:50:17.301Z,12.60
2019-02-18T00:51:17.383Z,12.50
2019-02-18T00:52:17.471Z,13.20
2019-02-18T00:53:17.556Z,13.00
2019-02-18T00:54:17.707Z,12.50
2019-02-18T00:55:17.744Z,12.90
2019-02-18T00:56:17.812Z,12.50
2019-02-18T00:57:17.890Z,13.30
2019-02-18T00:58:17.983Z,12.50
2019-02-18T00:59:18.090Z,12.60
2019-02-18T01:00:18.148Z,12.70
2019-02-18T01:01:18.235Z,13.10
2019-02-18T01:02:18.318Z,13.00
2019-02-18T01:03:18.401Z,12.50
2019-02-18T01:04:18.493Z,12.50
2019-02-18T01:05:18.577Z,11.70
2019-02-18T01:06:18.666Z,12.70
2019-02-18T01:07:18.750Z,12.50
2019-02-18T01:08:18.833Z,13.30
2019-02-18T01:09:18.921Z,12.70
2019-02-18T01:10:19.009Z,12.20
2019-02-18T01:11:19.097Z,12.60
2019-02-18T01:12:19.181Z,12.30
2019-02-18T01:13:19.269Z,12.60
2019-02-18T01:14:19.348Z,12.50
2019-02-18T01:15:19.426Z,13.30
2019-02-18T01:16:19.508Z,12.80
2019-02-18T01:17:19.596Z,12.90
2019-02-18T01:18:19.682Z,13.60
2019-02-18T01:19:19.845Z,12.80
2019-02-18T01:20:19.856Z,13.30
2019-02-18T01:21:19.942Z,13.30
2019-02-18T01:22:20.090Z,13.20
2019-02-18T01:23:20.112Z,13.10
2019-02-18T01:24:20.198Z,13.30
2019-02-18T01:25:20.284Z,12.70
2019-02-18T01:26:20.369Z,12.60
2019-02-18T01:27:20.449Z,13.30
2019-02-18T01:28:20.541Z,12.60
2019-02-18T01:29:20.624Z,13.40
2019-02-18T01:30:20.715Z,13.20
2019-02-18T01:31:20.800Z,13.90
2019-02-18T01:32:20.886Z,12.40
2019-02-18T01:33:20.989Z,12.90
2019-02-18T01:34:21.059Z,13.40
2019-02-18T01:35:21.149Z,11.90
2019-02-18T01:36:23.073Z,13.10
2019-02-18T01:37:21.321Z,12.00
2019-02-18T01:38:21.405Z,13.50
2019-02-18T01:39:21.494Z,12.90
2019-02-18T01:40:21.577Z,12.70
2019-02-18T01:41:21.664Z,13.00
2019-02-18T01:42:21.749Z,13.20
2019-02-18T01:43:21.837Z,12.60
2019-02-18T01:44:21.924Z,12.60
2019-02-18T01:45:22.009Z,12.90
2019-02-18T01:46:22.107Z,13.20
2019-02-18T01:47:22.181Z,12.30
2019-02-18T01:48:22.267Z,12.40
2019-02-18T01:49:22.355Z,12.20
2019-02-18T01:50:22.437Z,12.60
2019-02-18T01:51:22.525Z,12.20
2019-02-18T01:52:22.611Z,12.60
2019-02-18T01:53:22.711Z,12.90
2019-02-18T01:54:22.780Z,13.70
2019-02-18T01:55:22.866Z,12.60
2019-02-18T01:56:22.954Z,13.10
2019-02-18T01:57:23.035Z,13.60
2019-02-18T01:58:23.129Z,13.50
2019-02-18T01:59:23.213Z,13.00
2019-02-18T02:00:23.299Z,13.50
2019-02-18T02:01:23.385Z,12.40
2019-02-18T02:02:23.470Z,12.60
2019-02-18T02:03:25.148Z,12.80
2019-02-18T02:04:23.659Z,13.10
2019-02-18T02:05:23.745Z,12.00
2019-02-18T02:06:23.832Z,12.40
2019-02-18T02:07:23.918Z,13.20
2019-02-18T02:08:24.011Z,12.50
2019-02-18T02:09:24.091Z,12.60
2019-02-18T02:10:24.191Z,13.20
2019-02-18T02:11:24.271Z,12.50
2019-02-18T02:12:24.350Z,12.40
2019-02-18T02:13:24.437Z,13.30
2019-02-18T02:14:24.522Z,13.90
2019-02-18T02:15:24.615Z,12.70
2019-02-18T02:16:24.705Z,12.80
2019-02-18T02:17:24.787Z,12.60
2019-02-18T02:18:24.875Z,12.70
2019-02-18T02:19:24.959Z,12.40
2019-02-18T02:20:25.045Z,13.40
2019-02-18T02:21:25.132Z,12.30
2019-02-18T02:22:25.218Z,12.90
2019-02-18T02:23:25.305Z,12.70
2019-02-18T02:24:25.393Z,12.90
2019-02-18T02:25:25.467Z,13.50
2019-02-18T02:26:25.568Z,13.20
2019-02-18T02:27:25.646Z,13.00
2019-02-18T02:28:25.732Z,12.90
2019-02-18T02:29:25.818Z,13.30
2019-02-18T02:30:25.903Z,13.10
2019-02-18T02:31:25.991Z,13.40
2019-02-18T02:32:26.079Z,12.50
2019-02-18T02:33:26.165Z,14.20
2019-02-18T02:34:26.248Z,13.50
2019-02-18T02:35:26.354Z,12.30
2019-02-18T02:36:26.421Z,12.70
2019-02-18T02:37:26.509Z,13.50
2019-02-18T02:38:26.600Z,13.30
2019-02-18T02:39:26.679Z,12.70
2019-02-18T02:40:26.764Z,13.10
2019-02-18T02:41:26.853Z,13.30
2019-02-18T02:42:26.943Z,12.80
2019-02-18T02:43:27.029Z,13.10
2019-02-18T02:44:27.114Z,13.10
2019-02-18T02:45:27.199Z,12.90
2019-02-18T02:46:27.279Z,12.80
2019-02-18T02:47:27.372Z,12.70
2019-02-18T02:48:27.455Z,12.80
2019-02-18T02:49:27.546Z,12.90
2019-02-18T02:50:27.632Z,13.10
2019-02-18T02:51:27.716Z,13.60
2019-02-18T02:52:27.800Z,13.50
2019-02-18T02:53:27.890Z,13.10
2019-02-18T02:54:27.974Z,13.40
2019-02-18T02:55:28.060Z,12.90
2019-02-18T02:56:28.151Z,13.40
2019-02-18T02:57:28.300Z,13.20
2019-02-18T02:58:28.320Z,12.80
2019-02-18T02:59:28.404Z,13.00
2019-02-18T03:00:28.492Z,13.30
2019-02-18T03:01:28.573Z,13.10
2019-02-18T03:02:28.663Z,13.10
2019-02-18T03:03:28.748Z,13.40
2019-02-18T03:04:28.844Z,13.90
2019-02-18T03:05:28.931Z,13.10
2019-02-18T03:06:29.005Z,13.30
2019-02-18T03:07:29.093Z,13.30
2019-02-18T03:08:29.182Z,13.20
2019-02-18T03:09:29.263Z,12.70
2019-02-18T03:10:29.351Z,13.30
2019-02-18T03:11:29.433Z,13.10
2019-02-18T03:12:29.522Z,12.90
2019-02-18T03:13:29.614Z,13.20
2019-02-18T03:14:29.693Z,13.40
2019-02-18T03:15:29.780Z,12.60
2019-02-18T03:16:29.863Z,13.80
2019-02-18T03:17:29.948Z,13.00
2019-02-18T03:18:30.031Z,13.40
2019-02-18T03:19:30.121Z,13.10
2019-02-18T03:20:30.204Z,13.10
2019-02-18T03:21:30.292Z,14.20
2019-02-18T03:22:30.384Z,12.80
2019-02-18T03:23:30.468Z,12.50
2019-02-18T03:24:30.553Z,13.20
2019-02-18T03:25:30.634Z,13.60
2019-02-18T03:26:30.724Z,13.70
2019-02-18T03:27:30.809Z,13.10
2019-02-18T03:28:30.897Z,12.40
2019-02-18T03:29:30.973Z,13.00
2019-02-18T03:30:31.062Z,12.80
2019-02-18T03:31:31.145Z,13.80
2019-02-18T03:32:31.235Z,13.00
2019-02-18T03:33:31.317Z,12.90
2019-02-18T03:34:31.400Z,13.50
2019-02-18T03:35:31.485Z,13.60
2019-02-18T03:36:31.574Z,13.80
2019-02-18T03:37:31.655Z,13.70
2019-02-18T03:38:32.143Z,13.40
2019-02-18T03:39:31.825Z,13.40
2019-02-18T03:40:31.912Z,13.00
2019-02-18T03:41:31.999Z,12.80
2019-02-18T03:42:32.086Z,13.10
2019-02-18T03:43:32.185Z,13.40
2019-02-18T03:44:32.267Z,13.70
2019-02-18T03:45:32.347Z,13.60
2019-02-18T03:46:32.429Z,13.50
2019-02-18T03:47:32.512Z,13.30
2019-02-18T03:48:32.600Z,13.80
2019-02-18T03:49:32.706Z,13.70
2019-02-18T03:50:32.762Z,14.10
2019-02-18T03:51:32.851Z,13.20
2019-02-18T03:52:32.925Z,14.10
2019-02-18T03:53:33.015Z,13.60
2019-02-18T03:54:33.100Z,13.50
2019-02-18T03:55:33.188Z,13.70
2019-02-18T03:56:33.274Z,13.70
2019-02-18T03:57:33.359Z,12.90
2019-02-18T03:58:33.445Z,14.20
2019-02-18T03:59:33.531Z,13.80
2019-02-18T04:00:33.617Z,13.30
2019-02-18T04:01:33.702Z,12.70
2019-02-18T04:02:33.788Z,13.40
2019-02-18T04:03:33.879Z,12.90
2019-02-18T04:04:33.991Z,13.10
2019-02-18T04:05:34.076Z,13.40
2019-02-18T04:06:34.167Z,13.40
2019-02-18T04:07:34.248Z,13.80
2019-02-18T04:08:42.311Z,13.60
2019-02-18T04:09:34.420Z,13.70
2019-02-18T04:10:34.505Z,14.60
2019-02-18T04:11:34.593Z,14.40
2019-02-18T04:12:34.679Z,14.10
2019-02-18T04:13:34.760Z,13.70
2019-02-18T04:14:34.849Z,14.30
2019-02-18T04:15:34.933Z,13.90
2019-02-18T04:16:35.016Z,13.60
2019-02-18T04:17:35.101Z,14.20
2019-02-18T04:18:35.189Z,13.40
2019-02-18T04:19:35.271Z,13.50
2019-02-18T04:20:35.359Z,13.20
2019-02-18T04:21:35.445Z,13.40
2019-02-18T04:22:35.533Z,13.30
2019-02-18T04:23:35.623Z,13.70
2019-02-18T04:24:35.701Z,14.30
2019-02-18T04:25:35.789Z,14.00
2019-02-18T04:26:35.874Z,13.90
2019-02-18T04:27:35.960Z,13.40
2019-02-18T04:28:36.047Z,13.50
2019-02-18T04:29:36.130Z,14.10
2019-02-18T04:30:36.224Z,13.80
2019-02-18T04:31:36.309Z,13.70
2019-02-18T04:32:36.393Z,13.70
2019-02-18T04:33:36.479Z,13.30
2019-02-18T04:34:36.565Z,13.40
2019-02-18T04:35:36.652Z,13.50
2019-02-18T04:36:36.736Z,13.50
2019-02-18T04:37:36.830Z,13.80
2019-02-18T04:38:36.909Z,13.30
2019-02-18T04:39:37.003Z,13.90
2019-02-18T04:40:37.081Z,14.20
2019-02-18T04:41:37.165Z,13.50
2019-02-18T04:42:37.251Z,14.00
2019-02-18T04:43:37.335Z,13.60
2019-02-18T04:44:37.422Z,14.40
2019-02-18T04:45:37.511Z,14.50
2019-02-18T04:46:37.639Z,14.50
2019-02-18T04:47:37.715Z,13.80
2019-02-18T04:48:37.816Z,13.60
2019-02-18T04:49:37.903Z,13.80
2019-02-18T04:50:37.985Z,14.30
2019-02-18T04:51:38.076Z,14.00
2019-02-18T04:52:38.184Z,13.70
2019-02-18T04:53:38.247Z,13.70
2019-02-18T04:54:38.335Z,13.20
2019-02-18T04:55:38.422Z,13.90
2019-02-18T04:56:38.509Z,13.50
2019-02-18T04:57:38.595Z,13.30
2019-02-18T04:58:38.681Z,13.40
2019-02-18T04:59:38.766Z,14.00
2019-02-18T05:00:38.854Z,14.00
2019-02-18T05:01:38.939Z,13.90
2019-02-18T05:02:39.026Z,14.50
2019-02-18T05:03:39.118Z,13.20
2019-02-18T05:04:39.198Z,13.70
2019-02-18T05:05:39.300Z,13.30
2019-02-18T05:06:39.393Z,13.40
2019-02-18T05:07:39.471Z,14.10
2019-02-18T05:08:39.554Z,14.10
2019-02-18T05:09:40.082Z,13.50
2019-02-18T05:10:39.749Z,13.90
2019-02-18T05:11:39.836Z,13.70
2019-02-18T05:12:39.929Z,13.70
2019-02-18T05:13:40.006Z,13.90
2019-02-18T05:14:40.085Z,13.70
2019-02-18T05:15:40.610Z,13.90
2019-02-18T05:16:40.268Z,13.80
2019-02-18T05:17:40.351Z,13.60
2019-02-18T05:18:40.441Z,13.80
2019-02-18T05:19:40.527Z,13.30
2019-02-18T05:20:40.620Z,14.00
2019-02-18T05:21:40.698Z,13.90
2019-02-18T05:22:40.788Z,14.00
2019-02-18T05:23:40.861Z,14.00
2019-02-18T05:24:40.973Z,14.50
2019-02-18T05:25:41.047Z,15.00
2019-02-18T05:26:41.127Z,14.80
2019-02-18T05:27:41.213Z,14.10
2019-02-18T05:28:41.299Z,14.20
2019-02-18T05:29:41.391Z,14.80
2019-02-18T05:30:41.467Z,14.70
2019-02-18T05:31:41.550Z,14.40
2019-02-18T05:32:41.692Z,14.70
2019-02-18T05:33:41.727Z,14.10
2019-02-18T05:34:41.824Z,14.00
2019-02-18T05:35:41.928Z,14.90
2019-02-18T05:36:42.077Z,14.80
2019-02-18T05:37:42.106Z,15.10
2019-02-18T05:38:42.153Z,14.40
2019-02-18T05:39:42.225Z,14.70
2019-02-18T05:40:42.321Z,14.60
2019-02-18T05:41:42.500Z,13.90
2019-02-18T05:42:42.432Z,14.30
2019-02-18T05:43:42.521Z,14.60
2019-02-18T05:44:42.599Z,15.50
2019-02-18T05:45:42.670Z,15.30
2019-02-18T05:46:42.766Z,15.10
2019-02-18T05:47:42.849Z,14.80
2019-02-18T05:48:42.932Z,14.70
2019-02-18T05:49:43.020Z,15.80
2019-02-18T05:50:43.166Z,14.30
2019-02-18T05:51:43.215Z,14.00
2019-02-18T05:52:43.302Z,15.30
2019-02-18T05:53:43.395Z,14.30
2019-02-18T05:54:43.480Z,14.90
2019-02-18T05:55:43.566Z,14.00
2019-02-18T05:56:43.652Z,14.50
2019-02-18T05:57:43.739Z,14.70
2019-02-18T05:58:43.825Z,14.10
2019-02-18T05:59:43.910Z,14.30
2019-02-18T06:00:43.998Z,14.20
2019-02-18T06:01:44.092Z,14.80
2019-02-18T06:02:44.169Z,14.50
2019-02-18T06:03:44.256Z,14.30
2019-02-18T06:04:44.339Z,14.80
2019-02-18T06:05:44.425Z,15.00
2019-02-18T06:06:44.511Z,14.40
2019-02-18T06:07:44.613Z,14.50
2019-02-18T06:08:44.689Z,14.80
2019-02-18T06:09:44.775Z,15.20
2019-02-18T06:10:44.865Z,14.90
2019-02-18T06:11:44.946Z,14.60
2019-02-18T06:12:45.034Z,14.60
2019-02-18T06:13:45.118Z,15.70
2019-02-18T06:14:45.205Z,15.30
2019-02-18T06:15:45.290Z,14.80
2019-02-18T06:16:45.381Z,15.00
2019-02-18T06:17:45.463Z,15.90
2019-02-18T06:18:45.552Z,15.10
2019-02-18T06:19:45.638Z,15.10
2019-02-18T06:20:45.728Z,15.00
2019-02-18T06:21:45.814Z,14.60
2019-02-18T06:22:45.897Z,15.20
2019-02-18T06:23:45.983Z,14.80
2019-02-18T06:24:46.065Z,14.30
2019-02-18T06:25:46.154Z,14.70
2019-02-18T06:26:46.237Z,15.40
2019-02-18T06:27:46.327Z,16.00
2019-02-18T06:28:46.410Z,15.80
2019-02-18T06:29:46.497Z,16.70
2019-02-18T06:30:46.582Z,16.60
2019-02-18T06:31:46.672Z,16.10
2019-02-18T06:32:46.759Z,16.10
2019-02-18T06:33:46.843Z,15.60
2019-02-18T06:34:46.934Z,15.30
2019-02-18T06:35:47.059Z,15.90
2019-02-18T06:36:47.100Z,16.20
2019-02-18T06:37:47.195Z,15.10
2019-02-18T06:38:47.273Z,16.20
2019-02-18T06:39:47.364Z,15.80
2019-02-18T06:40:47.444Z,16.60
2019-02-18T06:41:47.531Z,15.50
2019-02-18T06:42:47.622Z,16.50
2019-02-18T06:43:47.701Z,16.20
2019-02-18T06:44:47.785Z,16.00
2019-02-18T06:45:47.872Z,16.40
2019-02-18T06:46:48.010Z,16.10
2019-02-18T06:47:48.038Z,16.70
2019-02-18T06:48:48.125Z,16.40
2019-02-18T06:49:48.215Z,16.00
2019-02-18T06:50:48.299Z,19.70
2019-02-18T06:51:48.387Z,17.00
2019-02-18T06:52:48.473Z,16.70
2019-02-18T06:53:48.562Z,16.50
2019-02-18T06:54:48.635Z,16.70
2019-02-18T06:55:48.742Z,16.50
2019-02-18T06:56:48.815Z,16.90
2019-02-18T06:57:48.897Z,18.50
2019-02-18T06:58:48.986Z,18.50
2019-02-18T06:59:49.075Z,18.60
2019-02-18T07:00:49.180Z,20.50
2019-02-18T07:01:49.274Z,17.90
2019-02-18T07:02:49.361Z,17.90
2019-02-18T07:03:49.451Z,16.80
2019-02-18T07:04:49.536Z,16.80
2019-02-18T07:05:49.622Z,17.00
2019-02-18T07:06:49.721Z,17.30
2019-02-18T07:07:49.801Z,16.30
2019-02-18T07:08:49.887Z,18.20
2019-02-18T07:09:51.561Z,17.00
2019-02-18T07:10:50.066Z,16.50
2019-02-18T07:11:50.152Z,17.30
2019-02-18T07:12:50.238Z,17.60
2019-02-18T07:13:50.324Z,16.60
2019-02-18T07:14:50.410Z,18.10
2019-02-18T07:15:50.493Z,17.90
2019-02-18T07:16:50.579Z,17.20
2019-02-18T07:17:50.665Z,17.50
2019-02-18T07:18:50.750Z,18.40
2019-02-18T07:19:50.833Z,18.40
2019-02-18T07:20:50.922Z,17.70
2019-02-18T07:21:51.009Z,18.60
2019-02-18T07:22:51.122Z,17.80
2019-02-18T07:23:51.208Z,17.80
2019-02-18T07:24:51.296Z,18.10
2019-02-18T07:25:51.377Z,17.10
2019-02-18T07:26:51.468Z,17.60
2019-02-18T07:27:51.551Z,17.50
2019-02-18T07:28:51.640Z,17.10
2019-02-18T07:29:51.725Z,18.40
2019-02-18T07:30:51.813Z,18.50
2019-02-18T07:31:51.909Z,18.40
2019-02-18T07:32:51.982Z,17.50
2019-02-18T07:33:52.071Z,18.10
2019-02-18T07:34:52.157Z,19.90
2019-02-18T07:35:52.246Z,19.10
2019-02-18T07:36:52.330Z,18.00
2019-02-18T07:37:52.415Z,18.80
2019-02-18T07:38:52.505Z,19.40
2019-02-18T07:40:01.225Z,19.70
2019-02-18T07:40:52.671Z,19.80
2019-02-18T07:41:52.755Z,19.80
2019-02-18T07:42:52.844Z,19.40
2019-02-18T07:43:52.929Z,19.80
2019-02-18T07:44:53.016Z,20.40
2019-02-18T07:45:53.105Z,20.20
2019-02-18T07:46:53.190Z,20.00
2019-02-18T07:47:53.279Z,19.30
2019-02-18T07:48:53.361Z,19.10
2019-02-18T07:49:53.454Z,18.40
2019-02-18T07:50:53.539Z,18.10
2019-02-18T07:51:53.626Z,18.30
2019-02-18T07:52:53.712Z,18.40
2019-02-18T07:53:53.801Z,18.00
2019-02-18T07:54:53.887Z,18.40
2019-02-18T07:55:53.980Z,17.80
2019-02-18T07:56:54.064Z,18.20
2019-02-18T07:57:54.150Z,18.10
2019-02-18T07:58:54.238Z,18.30
2019-02-18T07:59:54.324Z,17.40
2019-02-18T08:00:54.430Z,18.30
2019-02-18T08:01:54.499Z,17.60
2019-02-18T08:02:54.584Z,18.00
2019-02-18T08:03:54.676Z,18.00
2019-02-18T08:04:54.757Z,18.30
2019-02-18T08:05:54.846Z,17.50
2019-02-18T08:06:54.935Z,17.80
2019-02-18T08:07:55.037Z,18.20
2019-02-18T08:08:55.124Z,18.40
2019-02-18T08:09:55.213Z,19.20
2019-02-18T08:10:55.302Z,17.70
2019-02-18T08:11:55.387Z,19.20
2019-02-18T08:12:55.475Z,18.70
2019-02-18T08:13:55.563Z,18.70
2019-02-18T08:14:55.649Z,19.10
2019-02-18T08:15:55.735Z,18.80
2019-02-18T08:16:55.826Z,18.40
2019-02-18T08:17:55.912Z,18.70
2019-02-18T08:18:55.988Z,18.40
2019-02-18T08:19:56.078Z,19.20
2019-02-18T08:20:56.166Z,18.20
2019-02-18T08:21:56.253Z,19.10
2019-02-18T08:22:56.340Z,18.90
2019-02-18T08:24:00.027Z,19.40
2019-02-18T08:24:56.514Z,18.50
2019-02-18T08:25:56.605Z,18.90
2019-02-18T08:26:56.702Z,19.00
2019-02-18T08:27:56.777Z,19.20
2019-02-18T08:28:56.866Z,18.90
2019-02-18T08:29:56.953Z,19.70
2019-02-18T08:30:57.041Z,19.00
2019-02-18T08:31:57.126Z,19.40
2019-02-18T08:32:57.211Z,18.80
2019-02-18T08:33:57.298Z,19.80
2019-02-18T08:34:57.384Z,19.10
2019-02-18T08:35:57.472Z,19.40
2019-02-18T08:36:57.565Z,18.60
2019-02-18T08:37:57.650Z,19.20
2019-02-18T08:38:57.735Z,18.30
2019-02-18T08:39:57.825Z,20.10
2019-02-18T08:40:57.910Z,19.20
2019-02-18T08:41:57.997Z,19.70
2019-02-18T08:42:58.082Z,19.30
2019-02-18T08:43:58.173Z,19.90
2019-02-18T08:44:58.260Z,19.60
2019-02-18T08:45:58.344Z,19.40
2019-02-18T08:46:58.432Z,19.60
2019-02-18T08:47:58.520Z,19.00
2019-02-18T08:48:58.608Z,19.60
2019-02-18T08:49:58.697Z,19.40
2019-02-18T08:50:58.779Z,19.00
2019-02-18T08:51:58.873Z,19.20
2019-02-18T08:52:58.960Z,19.30
2019-02-18T08:53:59.054Z,18.70
2019-02-18T08:54:59.139Z,19.00
2019-02-18T08:55:59.227Z,18.70
2019-02-18T08:56:59.317Z,19.10
2019-02-18T08:57:59.405Z,18.60
2019-02-18T08:58:59.490Z,18.80
2019-02-18T08:59:59.582Z,18.40
2019-02-18T09:01:02.566Z,20.00
2019-02-18T09:02:08.424Z,18.60
2019-02-18T09:02:59.887Z,19.30
2019-02-18T09:03:59.979Z,18.70
2019-02-18T09:05:00.068Z,19.70
2019-02-18T09:06:00.154Z,19.10
2019-02-18T09:07:00.240Z,19.40
2019-02-18T09:08:00.330Z,20.20
2019-02-18T09:09:00.421Z,19.60
2019-02-18T09:10:00.528Z,19.20
2019-02-18T09:11:00.613Z,19.70
2019-02-18T09:12:00.703Z,18.40
2019-02-18T09:13:00.788Z,19.50
2019-02-18T09:14:00.876Z,19.90
2019-02-18T09:15:00.975Z,18.80
2019-02-18T09:16:01.052Z,19.00
2019-02-18T09:17:01.141Z,18.90
2019-02-18T09:18:01.229Z,18.60
2019-02-18T09:19:01.318Z,17.70
2019-02-18T09:20:01.405Z,19.20
2019-02-18T09:21:01.494Z,19.30
2019-02-18T09:22:01.588Z,17.90
2019-02-18T09:23:01.684Z,19.20
2019-02-18T09:24:01.768Z,18.60
2019-02-18T09:25:01.858Z,18.50
2019-02-18T09:26:01.965Z,18.60
2019-02-18T09:27:02.076Z,18.60
2019-02-18T09:28:02.128Z,19.50
2019-02-18T09:29:02.212Z,20.30
2019-02-18T09:30:02.302Z,19.30
2019-02-18T09:31:02.392Z,19.10
2019-02-18T09:32:02.493Z,18.80
2019-02-18T09:33:02.577Z,18.30
2019-02-18T09:34:02.662Z,18.20
2019-02-18T09:35:02.745Z,19.10
2019-02-18T09:36:02.837Z,19.10
2019-02-18T09:37:02.932Z,19.10
2019-02-18T09:38:03.019Z,19.30
2019-02-18T09:39:03.105Z,19.10
2019-02-18T09:40:03.197Z,19.10
2019-02-18T09:41:03.309Z,19.60
2019-02-18T09:42:03.538Z,19.70
2019-02-18T09:43:03.489Z,20.40
2019-02-18T09:44:03.598Z,20.00
2019-02-18T09:45:03.715Z,20.50
2019-02-18T09:46:03.910Z,20.20
2019-02-18T09:47:03.984Z,20.00
2019-02-18T09:48:04.393Z,19.20
2019-02-18T09:49:04.262Z,20.70
2019-02-18T09:50:04.321Z,20.00
2019-02-18T09:51:04.421Z,19.90
2019-02-18T09:52:04.246Z,20.60
2019-02-18T09:53:04.469Z,20.70
2019-02-18T09:54:04.926Z,20.50
2019-02-18T09:55:04.663Z,19.80
2019-02-18T09:56:04.629Z,19.90
2019-02-18T09:57:04.837Z,20.80
2019-02-18T09:58:05.113Z,20.70
2019-02-18T09:59:05.020Z,20.30
2019-02-18T10:00:05.177Z,20.00
2019-02-18T10:01:05.356Z,21.30
2019-02-18T10:02:05.343Z,20.20
2019-02-18T10:03:05.499Z,20.40
2019-02-18T10:04:05.699Z,20.10
2019-02-18T10:05:05.717Z,20.60
2019-02-18T10:06:05.744Z,21.00
2019-02-18T10:07:05.901Z,20.60
2019-02-18T10:08:06.014Z,20.70
2019-02-18T10:09:06.036Z,21.00
2019-02-18T10:10:06.126Z,21.50
2019-02-18T10:11:06.115Z,21.20
2019-02-18T10:12:06.228Z,21.00
2019-02-18T10:13:06.311Z,21.00
2019-02-18T10:14:06.395Z,21.30
2019-02-18T10:15:06.488Z,20.60
2019-02-18T10:16:06.571Z,21.10
2019-02-18T10:17:06.678Z,20.90
2019-02-18T10:18:06.765Z,21.10
2019-02-18T10:19:06.850Z,22.00
2019-02-18T10:20:06.938Z,20.10
2019-02-18T10:21:07.027Z,21.20
2019-02-18T10:22:07.127Z,21.50
2019-02-18T10:23:07.204Z,22.40
2019-02-18T10:24:07.299Z,21.00
2019-02-18T10:25:07.418Z,22.10
2019-02-18T10:26:07.470Z,22.70
2019-02-18T10:27:07.562Z,22.90
2019-02-18T10:28:07.654Z,22.70
2019-02-18T10:29:07.744Z,22.10
2019-02-18T10:30:07.821Z,22.10
2019-02-18T10:31:07.965Z,22.10
2019-02-18T10:32:07.988Z,22.10
2019-02-18T10:33:08.254Z,21.70
2019-02-18T10:34:08.224Z,22.40
2019-02-18T10:35:08.309Z,22.10
2019-02-18T10:36:08.398Z,22.50
2019-02-18T10:37:08.492Z,22.30
2019-02-18T10:38:08.571Z,21.20
2019-02-18T10:39:08.671Z,22.20
2019-02-18T10:40:08.737Z,21.50
2019-02-18T10:41:08.829Z,21.30
2019-02-18T10:42:08.972Z,22.80
2019-02-18T10:43:09.015Z,22.50
2019-02-18T10:44:09.079Z,23.30
2019-02-18T10:45:09.176Z,21.80
2019-02-18T10:46:09.268Z,21.60
2019-02-18T10:47:09.351Z,22.20
2019-02-18T10:48:09.437Z,21.10
2019-02-18T10:49:19.427Z,22.20
2019-02-18T10:50:09.609Z,21.60
2019-02-18T10:51:09.696Z,21.60
2019-02-18T10:52:09.782Z,20.20
2019-02-18T10:53:09.866Z,21.40
2019-02-18T10:54:09.963Z,20.90
2019-02-18T10:55:10.043Z,20.70
2019-02-18T10:56:10.127Z,20.40
2019-02-18T10:57:10.231Z,20.10
2019-02-18T10:58:10.320Z,20.60
2019-02-18T10:59:10.402Z,20.90
2019-02-18T11:00:10.495Z,20.80
2019-02-18T11:01:10.571Z,21.40
2019-02-18T11:02:10.665Z,20.70
2019-02-18T11:03:10.755Z,20.00
2019-02-18T11:04:10.836Z,20.90
2019-02-18T11:05:10.931Z,20.70
2019-02-18T11:06:11.015Z,20.90
2019-02-18T11:07:11.100Z,22.10
2019-02-18T11:08:11.298Z,21.10
2019-02-18T11:09:11.291Z,20.70
2019-02-18T11:10:11.382Z,20.50
2019-02-18T11:11:17.112Z,19.80
2019-02-18T11:12:11.556Z,19.90
2019-02-18T11:13:11.645Z,20.20
2019-02-18T11:14:11.731Z,20.10
2019-02-18T11:15:11.826Z,19.40
2019-02-18T11:16:11.916Z,19.50
2019-02-18T11:17:12.013Z,20.00
2019-02-18T11:18:12.093Z,20.20
2019-02-18T11:19:12.189Z,20.00
2019-02-18T11:20:12.275Z,17.90
2019-02-18T11:21:12.365Z,18.60
2019-02-18T11:22:12.446Z,18.20
2019-02-18T11:23:12.539Z,18.00
2019-02-18T11:24:12.616Z,17.50
2019-02-18T11:25:12.710Z,15.90
2019-02-18T11:26:12.882Z,17.40
2019-02-18T11:27:12.891Z,17.40
2019-02-18T11:28:12.982Z,17.90
2019-02-18T11:29:13.067Z,17.10
2019-02-18T11:30:13.164Z,16.30
2019-02-18T11:31:13.249Z,17.00
2019-02-18T11:32:13.328Z,16.60
2019-02-18T11:33:13.424Z,16.50
2019-02-18T11:34:13.516Z,16.20
2019-02-18T11:35:13.604Z,16.90
2019-02-18T11:36:13.698Z,16.30
2019-02-18T11:37:13.914Z,17.70
2019-02-18T11:38:13.872Z,17.60
2019-02-18T11:39:13.961Z,17.40
2019-02-18T11:40:14.052Z,17.00
2019-02-18T11:41:14.145Z,17.20
2019-02-18T11:42:14.239Z,15.90
2019-02-18T11:43:14.324Z,17.20
2019-02-18T11:44:14.416Z,16.10
2019-02-18T11:45:14.505Z,16.60
2019-02-18T11:46:14.603Z,16.30
2019-02-18T11:47:14.720Z,16.80
2019-02-18T11:48:14.815Z,18.00
2019-02-18T11:49:14.924Z,16.90
2019-02-18T11:50:14.998Z,15.80
2019-02-18T11:51:15.079Z,16.00
2019-02-18T11:52:15.171Z,15.40
2019-02-18T11:53:15.262Z,15.40
2019-02-18T11:54:15.357Z,16.00
2019-02-18T11:55:15.490Z,15.90
2019-02-18T11:56:15.541Z,15.80
2019-02-18T11:57:15.641Z,15.90
2019-02-18T11:58:15.734Z,16.40
2019-02-18T11:59:23.981Z,16.30
2019-02-18T12:00:15.907Z,16.70
2019-02-18T12:01:16.004Z,16.40
2019-02-18T12:02:16.087Z,15.90
2019-02-18T12:03:16.200Z,16.60
2019-02-18T12:04:16.275Z,17.10
2019-02-18T12:05:16.367Z,16.20
2019-02-18T12:06:16.461Z,16.70
2019-02-18T12:07:16.553Z,16.70
2019-02-18T12:08:16.637Z,16.90
2019-02-18T12:09:17.844Z,16.70
2019-02-18T12:10:16.821Z,17.30
2019-02-18T12:11:16.918Z,16.70
2019-02-18T12:12:17.019Z,17.60
2019-02-18T12:13:17.098Z,18.20
2019-02-18T12:14:17.187Z,16.90
2019-02-18T12:15:17.295Z,17.50
2019-02-18T12:16:17.365Z,17.20
2019-02-18T12:17:20.544Z,16.10
2019-02-18T12:18:17.546Z,16.90
2019-02-18T12:19:17.685Z,16.80
2019-02-18T12:20:17.771Z,16.80
2019-02-18T12:21:17.858Z,15.80
2019-02-18T12:22:17.956Z,15.00
2019-02-18T12:23:18.029Z,13.80
2019-02-18T12:24:18.131Z,13.70
2019-02-18T12:25:18.221Z,13.80
2019-02-18T12:26:18.299Z,14.50
2019-02-18T12:27:18.414Z,14.60
2019-02-18T12:28:18.489Z,15.60
2019-02-18T12:29:26.289Z,14.80
2019-02-18T12:30:18.677Z,14.30
2019-02-18T12:31:18.765Z,14.50
2019-02-18T12:32:18.845Z,14.90
2019-02-18T12:33:18.935Z,14.30
2019-02-18T12:34:19.022Z,14.50
2019-02-18T12:35:19.115Z,14.90
2019-02-18T12:36:19.220Z,14.60
2019-02-18T12:37:19.321Z,14.50
2019-02-18T12:38:19.410Z,14.20
2019-02-18T12:39:19.500Z,14.00
2019-02-18T12:40:19.589Z,13.50
2019-02-18T12:41:19.684Z,13.40
2019-02-18T12:42:19.785Z,13.70
2019-02-18T12:43:19.868Z,13.20
2019-02-18T12:44:19.965Z,13.50
2019-02-18T12:45:20.052Z,13.00
2019-02-18T12:46:20.194Z,13.50
2019-02-18T12:47:20.261Z,13.00
2019-02-18T12:48:20.334Z,12.30
2019-02-18T12:49:20.449Z,11.90
2019-02-18T12:50:20.516Z,12.20
2019-02-18T12:51:20.605Z,12.30
2019-02-18T12:52:20.715Z,11.40
2019-02-18T12:53:20.813Z,11.00